Ebbw Vale, United Kingdom
Current Conditions -  °F | °C
As of 5:20 PM on Sunday 23 Nov 2014 (Local Time) from EGFF Reporting Station
Few Clouds Few Clouds  
Wind Chill: 39°   Ceiling: Unl
Heat Index: 43°   Visibility: 6mi
Dew Point: 37°   Wind: 7mph
Humidity: 81%   Direction: 340°NNW
Pressure: 30.12"   Gusts: NA
Location:  51.78°N, 3.21°W
Report Text: EGFF 231720Z 34006KT 9999 FEW035 06/03 Q1020
Loading
Personal Weather Stations






























Interactive Weather Map New forecast layout! Learn more

10-Day Weather Forecast

Advertisements
Track Severe Weather on mobile